Terminal Aerodrome Forecast
Issued by NWS

Home | Current Version | Previous Version | Text Only | Print | Product List | Glossary Off
Versions: 1 2 3 4 5 6 7 8 9 10 11 12 13 14 15 16 17 18 19 20

112
FTUS43 KFGF 251736
TAFBJI
TAF
KBJI 251736Z 2518/2618 24013KT P6SM BKN015
     FM251900 26015KT P6SM VCSH OVC015
     FM252100 28019G29KT P6SM VCSH OVC015
     FM260100 29016KT P6SM VCSH OVC015
     FM260500 29016KT P6SM OVC015
     FM260700 30016KT P6SM BKN045
     FM261500 30016KT P6SM OVC030=

USA.gov is the U.S. government's official web portal to all federal, state and local government web resources and services.